Archival Weather

Heathrow

London, United Kingdom (EGLL)

Report from: Friday, September 23, 2022 3:20 PM BST
Current time: Wednesday, December 6, 2023 7:15 AM GMT

Current weather – Weather history – Daily summaries
Weather forecast

Temperature17.0°C (62.6°F)
Dew point12.0°C (53.6°F)
Winds 5 kts (2.6 m/s, 5.8 mph) Vrb
Winds variableWinds variable from North-Northwest (340°) to East-Northeast (70°)
Visibility6.2 mi. (10 km)
Clouds Ceiling: Overcast 4,800 ft. (1,463 m)
Altimeter29.94 in.Hg (1014 mB)
Relative humidity72 %
Density altitude407 ft. (124 m)
Remarks Fully automated report
Corrected report
No significant changes expected in the next two hours
Flight conditions Visual Meteorological Conditions
Raw dataCOR EGLL 231420Z AUTO 03005KT 340V070 9999 OVC048 17/12 Q1014 NOSIG
An error has occurred. This application may no longer respond until reloaded. Reload 🗙